Time;durP1;ratioP1;P1;durP2;ratioP2;P2;SDS_P1;SDS_P2;PMS_P1;PMS_P2;Temp;Humidity;BMP_temperature;BMP_pressure;BME280_temperature;BME280_humidity;BME280_pressure;Samples;Min_cycle;Max_cycle;Signal;HPM_P1;HPM_P2
2022/12/05 00:01:16;;;;;;;61.03;39.72;;;;;;;0.74;100.00;101560.69;5067300;28;20048;-82
2022/12/05 00:03:41;;;;;;;59.22;38.42;;;;;;;0.74;100.00;101555.44;5065324;28;20107;-81
2022/12/05 00:06:07;;;;;;;62.80;39.55;;;;;;;0.71;100.00;101555.44;5056308;28;20218;-81
2022/12/05 00:08:32;;;;;;;58.97;40.70;;;;;;;0.74;100.00;101558.94;5070759;28;20028;-81
2022/12/05 00:10:58;;;;;;;61.35;41.17;;;;;;;0.72;100.00;101559.81;5068319;28;20039;-81
2022/12/05 00:13:23;;;;;;;57.85;39.28;;;;;;;0.74;100.00;101556.31;5046654;28;20037;-81
2022/12/05 00:15:48;;;;;;;59.50;39.20;;;;;;;0.76;100.00;101558.09;5050949;28;20025;-81
2022/12/05 00:18:13;;;;;;;63.20;40.15;;;;;;;0.73;100.00;101551.94;5065961;28;20024;-81
2022/12/05 00:20:47;;;;;;;58.13;39.53;;;;;;;0.77;100.00;101551.97;5060069;28;20021;-80
2022/12/05 00:23:12;;;;;;;61.58;40.67;;;;;;;0.76;100.00;101552.84;5051959;28;20078;-80
2022/12/05 00:25:38;;;;;;;61.65;40.05;;;;;;;0.79;100.00;101565.94;5063400;28;20652;-80
2022/12/05 00:28:03;;;;;;;67.50;41.58;;;;;;;0.79;100.00;101560.69;5056491;28;20028;-81
2022/12/05 00:30:28;;;;;;;63.85;41.03;;;;;;;0.79;100.00;101563.31;5058844;28;20496;-81
2022/12/05 00:32:54;;;;;;;66.80;42.72;;;;;;;0.80;100.00;101551.97;5068829;28;20032;-81
2022/12/05 00:35:19;;;;;;;61.78;40.97;;;;;;;0.76;100.00;101548.47;5071304;28;20077;-81
2022/12/05 00:37:44;;;;;;;63.47;41.40;;;;;;;0.76;100.00;101551.09;5071614;28;20028;-81
2022/12/05 00:40:10;;;;;;;62.90;40.25;;;;;;;0.80;100.00;101558.09;5068794;28;20043;-81
2022/12/05 00:42:35;;;;;;;70.93;43.33;;;;;;;0.80;100.00;101547.59;5055375;28;20055;-81
2022/12/05 00:45:01;;;;;;;69.10;42.97;;;;;;;0.74;100.00;101535.34;5050741;28;20029;-81
2022/12/05 00:47:26;;;;;;;63.80;43.05;;;;;;;0.79;100.00;101543.22;5055696;28;20028;-81
2022/12/05 00:49:51;;;;;;;64.40;42.22;;;;;;;0.83;100.00;101549.34;5072422;28;20329;-81
2022/12/05 00:52:16;;;;;;;65.13;42.13;;;;;;;0.81;100.00;101546.72;5058425;28;20116;-81
2022/12/05 00:54:42;;;;;;;65.32;41.53;;;;;;;0.84;100.00;101551.97;5054413;28;20474;-82
2022/12/05 00:57:07;;;;;;;64.57;41.70;;;;;;;0.85;100.00;101552.84;5067402;28;20033;-80
2022/12/05 00:59:33;;;;;;;66.65;42.45;;;;;;;0.85;100.00;101553.72;5060661;28;20465;-81
2022/12/05 01:01:58;;;;;;;67.70;42.60;;;;;;;0.85;100.00;101555.47;5069363;28;20029;-80
2022/12/05 01:04:24;;;;;;;65.63;42.10;;;;;;;0.85;100.00;101558.97;5073278;28;20045;-81
2022/12/05 01:06:54;;;;;;;67.38;43.28;;;;;;;0.84;100.00;101559.84;5073363;28;20031;-81
2022/12/05 01:09:20;;;;;;;69.75;44.17;;;;;;;0.84;100.00;101558.97;5093691;28;20519;-82
2022/12/05 01:11:46;;;;;;;67.78;43.35;;;;;;;0.84;100.00;101564.22;5067505;28;20050;-81
2022/12/05 01:14:14;;;;;;;66.75;43.10;;;;;;;0.82;100.00;101561.56;5050366;28;20031;-80
2022/12/05 01:16:41;;;;;;;68.25;42.58;;;;;;;0.86;100.00;101565.06;5065294;28;20555;-80
2022/12/05 01:19:12;;;;;;;68.65;42.35;;;;;;;0.85;100.00;101564.19;5068612;28;20124;-80
2022/12/05 01:21:37;;;;;;;71.40;44.03;;;;;;;0.86;100.00;101559.81;5066674;28;20028;-80
2022/12/05 01:24:03;;;;;;;69.28;43.10;;;;;;;0.85;100.00;101564.19;5069784;28;20019;-81
2022/12/05 01:26:28;;;;;;;70.35;42.70;;;;;;;0.85;100.00;101568.56;5067249;28;20112;-81
2022/12/05 01:28:54;;;;;;;70.40;45.38;;;;;;;0.87;100.00;101569.44;5062467;28;20073;-81
2022/12/05 01:31:19;;;;;;;68.65;43.72;;;;;;;0.89;100.00;101570.31;5066758;28;20035;-80
2022/12/05 01:33:45;;;;;;;66.93;44.17;;;;;;;0.86;100.00;101568.56;5067654;28;20044;-80
2022/12/05 01:36:14;;;;;;;68.40;43.30;;;;;;;0.90;100.00;101570.31;5058677;28;20029;-81
2022/12/05 01:38:40;;;;;;;69.40;44.65;;;;;;;0.90;100.00;101572.94;5057007;28;20028;-81
2022/12/05 01:41:10;;;;;;;72.90;44.63;;;;;;;0.90;100.00;101577.28;5061222;28;20040;-81
2022/12/05 01:44:02;;;;;;;74.68;45.25;;;;;;;0.92;100.00;101575.53;5065011;28;20111;-81
2022/12/05 01:46:30;;;;;;;70.63;43.97;;;;;;;0.90;100.00;101579.91;5062423;28;20056;-81
2022/12/05 01:49:12;;;;;;;67.30;43.40;;;;;;;0.92;100.00;101583.41;5065668;28;20032;-81
2022/12/05 01:51:40;;;;;;;67.55;44.05;;;;;;;0.91;100.00;101581.66;5058501;28;20025;-81
2022/12/05 01:54:07;;;;;;;70.13;43.85;;;;;;;0.92;100.00;101591.25;5064385;28;20495;-81
2022/12/05 01:56:34;;;;;;;75.35;44.80;;;;;;;0.91;100.00;101590.41;5066498;28;20102;-81
2022/12/05 01:59:02;;;;;;;67.65;43.20;;;;;;;0.90;100.00;101585.16;5064729;28;20020;-80
2022/12/05 02:01:27;;;;;;;73.20;45.65;;;;;;;0.88;100.00;101585.16;5062675;28;20058;-81
2022/12/05 02:03:56;;;;;;;65.07;44.88;;;;;;;0.91;100.00;101584.28;5060362;28;20025;-81
2022/12/05 02:06:22;;;;;;;68.20;44.95;;;;;;;0.91;100.00;101587.78;5060234;28;20036;-81
2022/12/05 02:08:48;;;;;;;69.50;44.63;;;;;;;0.88;100.00;101585.16;5067859;28;20052;-82
2022/12/05 02:11:14;;;;;;;69.60;45.83;;;;;;;0.89;100.00;101588.66;5065904;28;20033;-81
2022/12/05 02:13:51;;;;;;;68.18;43.58;;;;;;;0.93;100.00;101593.91;5065286;28;20474;-81
2022/12/05 02:16:43;;;;;;;70.60;45.30;;;;;;;0.92;100.00;101600.03;5055770;28;20024;-81
2022/12/05 02:19:17;;;;;;;76.55;46.60;;;;;;;0.91;100.00;101598.25;5066084;28;20540;-81
2022/12/05 02:22:14;;;;;;;69.72;44.20;;;;;;;0.92;100.00;101599.13;5063476;28;20035;-82
2022/12/05 02:25:07;;;;;;;76.22;46.55;;;;;;;0.87;100.00;101586.03;5065517;28;20021;-80
2022/12/05 02:28:14;;;;;;;73.22;46.20;;;;;;;0.84;100.00;101575.56;5047764;28;20490;-80
2022/12/05 02:30:49;;;;;;;73.70;45.38;;;;;;;0.91;100.00;101582.53;5047251;28;20067;-81
2022/12/05 02:33:40;;;;;;;81.05;46.10;;;;;;;0.91;100.00;101582.53;5064910;28;20043;-82
2022/12/05 02:36:14;;;;;;;72.93;45.80;;;;;;;0.92;100.00;101586.94;5068284;28;20043;-82
2022/12/05 02:39:01;;;;;;;78.32;47.17;;;;;;;0.92;100.00;101584.31;5065764;28;20086;-82
2022/12/05 02:41:31;;;;;;;77.28;46.50;;;;;;;0.92;100.00;101588.66;5057067;28;20048;-82
2022/12/05 02:44:09;;;;;;;72.60;47.58;;;;;;;0.88;100.00;101576.41;5057626;28;20029;-82
2022/12/05 02:46:37;;;;;;;79.03;47.95;;;;;;;0.90;100.00;101583.41;5051161;28;20035;-81
2022/12/05 02:49:09;;;;;;;78.97;47.75;;;;;;;0.90;100.00;101585.16;5075241;28;20020;-82
2022/12/05 02:51:40;;;;;;;84.75;50.13;;;;;;;0.87;100.00;101583.41;5068700;28;20039;-81
2022/12/05 02:54:11;;;;;;;79.25;48.65;;;;;;;0.86;100.00;101583.41;5064156;28;20028;-80
2022/12/05 02:56:39;;;;;;;82.03;48.85;;;;;;;0.89;100.00;101584.28;5061864;28;20105;-81
2022/12/05 02:59:04;;;;;;;77.97;48.78;;;;;;;0.92;100.00;101593.88;5065411;28;20032;-81
2022/12/05 03:01:31;;;;;;;79.35;48.97;;;;;;;0.91;100.00;101589.53;5062328;28;20032;-81
2022/12/05 03:03:59;;;;;;;83.63;48.33;;;;;;;0.90;100.00;101588.66;5067595;28;20425;-82
2022/12/05 03:06:28;;;;;;;77.80;49.22;;;;;;;0.92;100.00;101591.25;5059423;28;20112;-82
2022/12/05 03:09:01;;;;;;;80.05;50.22;;;;;;;0.91;100.00;101586.91;5070994;28;20444;-81
2022/12/05 03:11:32;;;;;;;84.32;51.13;;;;;;;0.93;100.00;101590.41;5062281;28;20033;-81
2022/12/05 03:14:00;;;;;;;82.38;49.30;;;;;;;0.94;100.00;101590.41;5064627;28;20028;-81
2022/12/05 03:16:35;;;;;;;83.22;50.63;;;;;;;0.93;100.00;101588.66;5066602;28;20039;-81
2022/12/05 03:19:04;;;;;;;78.57;49.47;;;;;;;0.96;100.00;101593.00;5066785;28;20081;-81
2022/12/05 03:21:34;;;;;;;79.15;48.88;;;;;;;0.95;100.00;101592.16;5067493;28;20103;-80
2022/12/05 03:24:06;;;;;;;82.60;48.42;;;;;;;0.96;100.00;101586.06;5070139;28;20087;-81
2022/12/05 03:26:50;;;;;;;81.82;49.83;;;;;;;0.97;100.00;101592.16;5074650;28;20400;-81
2022/12/05 03:29:19;;;;;;;;;;;;;;;1.04;100.00;101587.78;5087378;28;20012;-82
2022/12/05 03:31:56;;;;;;;79.38;48.40;;;;;;;0.99;100.00;101587.78;5093284;28;20163;-80
2022/12/05 03:34:32;;;;;;;78.68;48.35;;;;;;;1.01;100.00;101577.31;5095125;28;20111;-80
2022/12/05 03:37:04;;;;;;;81.80;48.90;;;;;;;0.98;100.00;101573.81;5064979;28;20553;-81
2022/12/05 03:39:34;;;;;;;82.03;48.15;;;;;;;1.01;100.00;101577.31;5064037;28;20032;-81
2022/12/05 03:42:08;;;;;;;77.50;47.42;;;;;;;1.01;100.00;101577.31;5064019;28;20017;-81
2022/12/05 03:44:53;;;;;;;77.78;47.58;;;;;;;1.01;100.00;101572.94;5066038;28;20051;-81
2022/12/05 03:47:51;;;;;;;76.30;48.03;;;;;;;1.05;100.00;101579.06;5052129;28;20074;-81
2022/12/05 03:50:25;;;;;;;75.35;46.75;;;;;;;1.02;100.00;101577.31;5042557;28;20048;-81
2022/12/05 03:52:59;;;;;;;78.45;47.17;;;;;;;1.02;100.00;101579.06;5027730;28;20029;-81
2022/12/05 03:55:28;;;;;;;71.45;45.97;;;;;;;1.04;100.00;101582.53;5044454;28;20106;-81
2022/12/05 03:58:21;;;;;;;79.78;47.70;;;;;;;1.06;100.00;101589.53;5044464;28;20489;-81
2022/12/05 04:00:50;;;;;;;79.10;48.13;;;;;;;1.03;100.00;101581.66;5039446;28;20072;-82
2022/12/05 04:03:23;;;;;;;73.30;47.28;;;;;;;1.06;100.00;101588.66;5039297;28;20041;-80
2022/12/05 04:05:53;;;;;;;75.43;46.47;;;;;;;1.08;100.00;101595.63;5044498;28;20044;-82
2022/12/05 04:08:24;;;;;;;72.45;45.83;;;;;;;1.10;100.00;101593.03;5046213;28;20095;-81
2022/12/05 04:10:52;;;;;;;77.70;48.00;;;;;;;1.09;100.00;101586.06;5035944;28;20120;-81
2022/12/05 04:13:24;;;;;;;69.88;44.78;;;;;;;1.10;100.00;101587.81;5010921;28;20091;-81
2022/12/05 04:19:00;;;;;;;75.40;46.08;;;;;;;1.11;100.00;101593.03;5047240;28;20087;-81
2022/12/05 04:21:39;;;;;;;75.00;46.15;;;;;;;1.12;100.00;101591.28;5029460;28;20079;-82
2022/12/05 04:27:21;;;;;;;71.85;45.70;;;;;;;1.13;100.00;101595.63;5057343;28;20039;-82
2022/12/05 04:30:00;;;;;;;67.25;43.60;;;;;;;1.15;100.00;101591.28;5065588;28;20396;-81
2022/12/05 04:32:29;;;;;;;72.28;44.47;;;;;;;1.10;100.00;101593.03;5065310;28;20272;-82
2022/12/05 04:35:01;;;;;;;70.22;45.03;;;;;;;1.12;100.00;101597.38;5052509;28;20028;-81
2022/12/05 04:37:32;;;;;;;71.05;44.40;;;;;;;1.14;100.00;101595.66;5058364;28;20031;-82
2022/12/05 04:40:08;;;;;;;72.43;43.80;;;;;;;1.13;100.00;101593.00;5057378;28;20052;-81
2022/12/05 04:42:35;;;;;;;71.30;43.22;;;;;;;1.15;100.00;101601.78;5068387;28;20044;-81
2022/12/05 04:45:08;;;;;;;66.60;43.05;;;;;;;1.14;100.00;101600.03;5070048;28;20099;-79
2022/12/05 04:47:42;;;;;;;68.90;44.23;;;;;;;1.14;100.00;101603.53;5069735;28;20064;-82
2022/12/05 04:50:10;;;;;;;69.25;44.00;;;;;;;1.17;100.00;101605.25;5067741;28;20032;-81
2022/12/05 04:52:37;;;;;;;71.15;44.30;;;;;;;1.15;100.00;101601.78;5069416;28;20052;-80
2022/12/05 04:55:10;;;;;;;68.75;44.50;;;;;;;1.14;100.00;101606.16;5070015;28;20027;-80
2022/12/05 04:57:47;;;;;;;69.50;43.53;;;;;;;1.11;100.00;101607.88;5069598;28;20111;-81
2022/12/05 05:00:12;;;;;;;66.13;42.08;;;;;;;1.14;100.00;101608.78;5068325;28;20033;-81
2022/12/05 05:02:49;;;;;;;67.35;43.13;;;;;;;1.07;100.00;101604.38;5066144;28;20330;-81
2022/12/05 05:05:17;;;;;;;68.95;43.00;;;;;;;1.09;100.00;101601.78;5066062;28;20028;-81
2022/12/05 05:07:52;;;;;;;69.50;43.75;;;;;;;1.14;100.00;101608.78;5065064;28;20055;-81
2022/12/05 05:10:44;;;;;;;69.10;42.72;;;;;;;1.16;100.00;101614.88;5067510;28;20040;-82
2022/12/05 05:13:09;;;;;;;69.18;44.15;;;;;;;1.17;100.00;101603.53;5047613;28;20059;-80
2022/12/05 05:15:35;;;;;;;67.45;43.50;;;;;;;1.13;100.00;101603.50;5065124;28;20055;-81
2022/12/05 05:18:00;;;;;;;72.32;45.67;;;;;;;1.17;100.00;101610.50;5066448;28;20028;-79
2022/12/05 05:20:26;;;;;;;68.18;42.47;;;;;;;1.14;100.00;101606.16;5063920;28;20468;-80
2022/12/05 05:22:53;;;;;;;67.63;43.70;;;;;;;1.14;100.00;101600.91;5067043;28;20477;-80
2022/12/05 05:25:19;;;;;;;68.88;43.55;;;;;;;1.17;100.00;101611.41;5063728;28;20024;-81
2022/12/05 05:27:53;;;;;;;64.03;42.05;;;;;;;1.19;100.00;101620.13;5064576;28;20020;-81
2022/12/05 05:30:19;;;;;;;70.63;43.80;;;;;;;1.18;100.00;101614.91;5071928;28;20508;-81
2022/12/05 05:32:45;;;;;;;69.95;44.17;;;;;;;1.17;100.00;101611.41;5066833;28;20025;-81
2022/12/05 05:35:11;;;;;;;66.28;42.83;;;;;;;1.20;100.00;101626.25;5066671;28;20037;-81
2022/12/05 05:37:37;;;;;;;70.85;45.33;;;;;;;1.20;100.00;101615.75;5063969;28;20033;-81
2022/12/05 05:40:05;;;;;;;70.32;44.35;;;;;;;1.19;100.00;101617.50;5065255;28;20038;-81
2022/12/05 05:42:30;;;;;;;70.30;42.58;;;;;;;1.21;100.00;101622.75;5060528;28;20064;-81
2022/12/05 05:44:55;;;;;;;67.55;43.53;;;;;;;1.23;100.00;101631.50;5062109;28;20056;-81
2022/12/05 05:47:21;;;;;;;68.47;43.65;;;;;;;1.18;100.00;101628.00;5063411;28;20020;-81
2022/12/05 05:49:46;;;;;;;72.70;43.85;;;;;;;1.16;100.00;101625.38;5095709;28;20050;-81
2022/12/05 05:52:11;;;;;;;70.13;44.63;;;;;;;1.14;100.00;101621.00;5084316;28;20054;-80
2022/12/05 05:54:36;;;;;;;71.13;44.80;;;;;;;1.13;100.00;101629.72;5091175;28;20020;-81
2022/12/05 05:57:02;;;;;;;72.38;45.60;;;;;;;1.11;100.00;101621.88;5076257;28;20115;-81
2022/12/05 05:59:27;;;;;;;74.28;46.55;;;;;;;1.06;100.00;101622.75;5059659;28;20017;-80
2022/12/05 06:01:53;;;;;;;76.43;46.33;;;;;;;1.08;100.00;101611.38;5055114;28;20554;-81
2022/12/05 06:04:18;;;;;;;69.10;44.05;;;;;;;1.07;100.00;101625.38;5062084;28;20025;-82
2022/12/05 06:06:43;;;;;;;72.70;44.03;;;;;;;1.01;100.00;101614.88;5066408;28;20431;-80
2022/12/05 06:09:09;;;;;;;75.97;46.95;;;;;;;1.07;100.00;101628.00;5070903;28;20047;-81
2022/12/05 06:11:34;;;;;;;77.32;45.50;;;;;;;1.03;100.00;101635.84;5053159;28;20035;-81
2022/12/05 06:14:02;;;;;;;74.93;45.05;;;;;;;1.06;100.00;101630.63;5066566;28;20028;-81
2022/12/05 06:16:29;;;;;;;70.50;44.22;;;;;;;1.08;100.00;101636.72;5071492;28;20016;-81
2022/12/05 06:18:55;;;;;;;73.50;44.70;;;;;;;1.04;100.00;101625.34;5063857;28;20520;-81
2022/12/05 06:21:21;;;;;;;76.93;45.63;;;;;;;1.09;100.00;101630.63;5064945;28;20036;-80
2022/12/05 06:23:47;;;;;;;74.25;44.55;;;;;;;1.08;100.00;101626.22;5066402;28;20040;-81
2022/12/05 06:26:15;;;;;;;74.30;45.22;;;;;;;1.09;100.00;101636.75;5066509;28;20032;-80
2022/12/05 06:28:41;;;;;;;81.35;47.35;;;;;;;1.10;100.00;101648.09;5070346;28;20024;-81
2022/12/05 06:31:18;;;;;;;76.25;45.75;;;;;;;1.10;100.00;101645.47;5069115;28;20035;-81
2022/12/05 06:33:44;;;;;;;80.28;45.90;;;;;;;1.03;100.00;101628.00;5066163;28;20024;-82
2022/12/05 06:36:15;;;;;;;75.32;45.78;;;;;;;1.07;100.00;101634.97;5060084;28;20029;-81
2022/12/05 06:38:41;;;;;;;74.07;46.35;;;;;;;1.10;100.00;101637.63;5056735;28;20024;-81
2022/12/05 06:41:08;;;;;;;75.65;44.67;;;;;;;1.11;100.00;101642.84;5065029;28;20387;-81
2022/12/05 06:43:34;;;;;;;75.53;45.17;;;;;;;1.08;100.00;101637.59;5057549;28;20169;-81
2022/12/05 06:46:03;;;;;;;75.55;45.38;;;;;;;1.11;100.00;101641.97;5066102;28;20101;-82
2022/12/05 06:48:29;;;;;;;73.90;44.58;;;;;;;1.12;100.00;101647.22;5058899;28;20031;-81
2022/12/05 06:50:54;;;;;;;72.28;45.00;;;;;;;1.05;100.00;101629.75;5068797;28;20467;-81
2022/12/05 06:53:19;;;;;;;75.05;45.33;;;;;;;1.14;100.00;101640.22;5056449;28;20473;-81
2022/12/05 06:56:01;;;;;;;79.80;46.30;;;;;;;1.15;100.00;101634.09;5061878;28;20132;-81
2022/12/05 06:58:27;;;;;;;78.05;46.35;;;;;;;1.17;100.00;101645.50;5065489;28;20024;-81
2022/12/05 07:03:37;;;;;;;75.00;46.72;;;;;;;1.17;100.00;101645.50;5063877;28;20039;-80
2022/12/05 07:06:05;;;;;;;74.10;44.70;;;;;;;1.18;100.00;101654.22;5067259;28;20021;-80
2022/12/05 07:08:31;;;;;;;76.97;44.30;;;;;;;1.19;100.00;101658.59;5070159;28;20070;-81
2022/12/05 07:10:57;;;;;;;75.72;46.00;;;;;;;1.20;100.00;101657.72;5068044;28;20072;-81
2022/12/05 07:13:22;;;;;;;71.00;44.33;;;;;;;1.21;100.00;101662.06;5065311;28;20099;-81
2022/12/05 07:15:49;;;;;;;79.05;46.40;;;;;;;1.21;100.00;101667.31;5065271;28;20450;-80
2022/12/05 07:18:15;;;;;;;70.95;44.80;;;;;;;1.19;100.00;101667.31;5064236;28;20031;-80
2022/12/05 07:20:42;;;;;;;71.25;44.78;;;;;;;1.19;100.00;101672.56;5050296;28;20061;-82
2022/12/05 07:23:07;;;;;;;72.63;45.45;;;;;;;1.20;100.00;101674.31;5058844;28;20025;-81
2022/12/05 07:25:33;;;;;;;73.00;45.47;;;;;;;1.19;100.00;101676.94;5065550;28;20035;-81
2022/12/05 07:27:58;;;;;;;68.05;42.78;;;;;;;1.22;100.00;101680.44;5065179;28;20043;-81
2022/12/05 07:30:23;;;;;;;70.45;42.53;;;;;;;1.24;100.00;101683.06;5066445;28;20146;-80
2022/12/05 07:32:49;;;;;;;68.65;42.15;;;;;;;1.19;100.00;101676.94;5066358;28;20477;-81
2022/12/05 07:35:14;;;;;;;69.65;43.55;;;;;;;1.21;100.00;101686.56;5066200;28;20034;-81
2022/12/05 07:37:39;;;;;;;66.43;42.58;;;;;;;1.26;100.00;101689.19;5065356;28;20031;-81
2022/12/05 07:40:05;;;;;;;65.55;42.40;;;;;;;1.24;100.00;101691.81;5058378;28;20029;-82
2022/12/05 07:42:30;;;;;;;68.78;42.75;;;;;;;1.26;100.00;101685.72;5070380;28;20024;-81
2022/12/05 07:44:56;;;;;;;69.22;42.80;;;;;;;1.26;100.00;101683.97;5066208;28;20028;-81
2022/12/05 07:47:21;;;;;;;68.43;42.85;;;;;;;1.27;100.00;101690.06;5067601;28;20350;-82
2022/12/05 07:49:46;;;;;;;68.28;41.47;;;;;;;1.30;100.00;101687.47;5068365;28;20028;-81
2022/12/05 07:52:11;;;;;;;65.40;40.70;;;;;;;1.31;100.00;101687.44;5070973;28;20032;-81
2022/12/05 07:54:37;;;;;;;64.30;41.13;;;;;;;1.31;100.00;101694.44;5055858;28;20032;-81
2022/12/05 07:57:02;;;;;;;66.35;41.67;;;;;;;1.31;100.00;101687.44;5059279;28;20024;-81
2022/12/05 07:59:27;;;;;;;62.30;40.00;;;;;;;1.31;100.00;101699.69;5065552;28;20017;-82
2022/12/05 08:01:53;;;;;;;62.47;40.10;;;;;;;1.28;100.00;101695.31;5061793;28;20052;-81
2022/12/05 08:04:18;;;;;;;65.20;40.40;;;;;;;1.31;100.00;101697.94;5070685;28;20032;-81
2022/12/05 08:06:43;;;;;;;65.90;40.80;;;;;;;1.28;100.00;101697.06;5071964;28;20104;-81
2022/12/05 08:09:09;;;;;;;61.58;39.88;;;;;;;1.29;100.00;101696.19;5086834;28;20028;-80
2022/12/05 08:11:35;;;;;;;59.35;38.75;;;;;;;1.32;100.00;101704.94;5090305;28;20050;-81
2022/12/05 08:14:01;;;;;;;58.63;39.00;;;;;;;1.31;100.00;101700.56;5080097;28;20029;-80
2022/12/05 08:16:27;;;;;;;61.97;38.45;;;;;;;1.33;100.00;101711.03;5078883;28;20028;-81
2022/12/05 08:18:55;;;;;;;60.13;39.47;;;;;;;1.34;100.00;101716.31;5066989;28;20031;-81
2022/12/05 08:21:20;;;;;;;59.80;37.97;;;;;;;1.35;100.00;101717.19;5068273;28;20066;-81
2022/12/05 08:23:46;;;;;;;63.65;40.03;;;;;;;1.33;100.00;101717.16;5070505;28;20070;-80
2022/12/05 08:26:19;;;;;;;62.22;38.88;;;;;;;1.37;100.00;101718.91;5070551;28;20093;-80
2022/12/05 08:28:45;;;;;;;63.72;39.15;;;;;;;1.38;100.00;101720.69;5072269;28;20609;-81
2022/12/05 08:31:14;;;;;;;61.15;39.45;;;;;;;1.41;100.00;101735.53;5059382;28;20032;-79
2022/12/05 08:33:40;;;;;;;61.42;40.25;;;;;;;1.41;100.00;101731.16;5062284;28;20103;-80
2022/12/05 08:36:09;;;;;;;62.72;38.95;;;;;;;1.43;100.00;101734.69;5066739;28;20151;-80
2022/12/05 08:38:35;;;;;;;62.20;40.47;;;;;;;1.43;100.00;101734.69;5062536;28;20028;-80
2022/12/05 08:41:05;;;;;;;60.35;39.30;;;;;;;1.45;100.00;101745.16;5069806;28;20051;-81
2022/12/05 08:43:31;;;;;;;61.10;39.20;;;;;;;1.41;100.00;101730.28;5067673;28;20029;-81
2022/12/05 08:45:57;;;;;;;67.15;41.67;;;;;;;1.41;100.00;101736.41;5068266;28;20096;-79
2022/12/05 08:48:23;;;;;;;62.13;40.75;;;;;;;1.44;100.00;101735.53;5059120;28;20501;-81
2022/12/05 08:50:49;;;;;;;61.45;39.00;;;;;;;1.43;100.00;101726.81;5058978;28;20044;-79
2022/12/05 08:53:14;;;;;;;62.10;39.50;;;;;;;1.47;100.00;101738.19;5066713;28;20359;-80
2022/12/05 08:55:40;;;;;;;62.50;39.45;;;;;;;1.46;100.00;101737.31;5066634;28;20090;-80
2022/12/05 08:58:05;;;;;;;66.78;39.28;;;;;;;1.48;100.00;101743.41;5054528;28;20028;-80
2022/12/05 09:00:31;;;;;;;63.25;40.55;;;;;;;1.48;100.00;101732.94;5066582;28;20086;-80
2022/12/05 09:02:57;;;;;;;64.93;40.60;;;;;;;1.49;100.00;101742.53;5071359;28;20033;-80
2022/12/05 09:05:23;;;;;;;64.35;39.30;;;;;;;1.52;100.00;101752.16;5055100;28;20041;-80
2022/12/05 09:07:48;;;;;;;61.17;39.80;;;;;;;1.56;100.00;101753.06;5067828;28;20115;-80
2022/12/05 09:10:14;;;;;;;60.25;38.40;;;;;;;1.55;100.00;101754.81;5065533;28;20108;-80
2022/12/05 09:12:39;;;;;;;64.32;39.60;;;;;;;1.57;100.00;101754.78;5068427;28;20032;-80
2022/12/05 09:15:06;;;;;;;62.17;38.92;;;;;;;1.56;100.00;101758.31;5063737;28;20074;-80
2022/12/05 09:17:32;;;;;;;64.93;40.13;;;;;;;1.58;100.00;101759.16;5065010;28;20036;-81
2022/12/05 09:19:57;;;;;;;60.05;40.58;;;;;;;1.58;100.00;101762.66;5060101;28;20024;-80
2022/12/05 09:22:22;;;;;;;62.42;38.10;;;;;;;1.57;100.00;101757.41;5068166;28;20024;-80
2022/12/05 09:24:48;;;;;;;62.38;39.70;;;;;;;1.58;100.00;101762.66;5067897;28;20469;-77
2022/12/05 09:27:13;;;;;;;60.75;38.92;;;;;;;1.55;100.00;101761.78;5063204;28;20679;-81
2022/12/05 09:29:39;;;;;;;60.40;38.95;;;;;;;1.60;100.00;101770.56;5057224;28;20032;-79
2022/12/05 09:32:05;;;;;;;57.33;37.83;;;;;;;1.60;100.00;101776.66;5217028;22;20130;-80
2022/12/05 09:34:30;;;;;;;57.90;37.03;;;;;;;1.59;100.00;101777.56;5023261;28;20025;-81
2022/12/05 09:36:56;;;;;;;61.72;39.72;;;;;;;1.54;100.00;101758.28;5027714;28;20068;-80
2022/12/05 09:39:22;;;;;;;63.10;39.38;;;;;;;1.62;100.00;101776.66;5026349;28;20490;-81
2022/12/05 09:42:04;;;;;;;62.70;38.65;;;;;;;1.65;100.00;101774.03;5027974;28;20426;-81
2022/12/05 09:45:07;;;;;;;58.75;38.63;;;;;;;1.66;100.00;101779.28;5026636;28;20041;-80
2022/12/05 09:47:55;;;;;;;60.15;37.95;;;;;;;1.64;100.00;101778.44;5027904;28;20026;-80
2022/12/05 09:50:27;;;;;;;60.47;37.55;;;;;;;1.63;100.00;101775.78;5031661;28;20199;-80
2022/12/05 09:52:55;;;;;;;60.45;37.95;;;;;;;1.67;100.00;101777.53;5022126;28;20099;-81
2022/12/05 09:55:20;;;;;;;55.15;37.47;;;;;;;1.66;100.00;101779.28;5017577;28;20033;-80
2022/12/05 09:57:54;;;;;;;60.65;39.33;;;;;;;1.72;100.00;101781.94;5024683;28;20040;-80
2022/12/05 10:00:20;;;;;;;56.85;37.75;;;;;;;1.78;100.00;101783.66;5040419;28;20036;-80
2022/12/05 10:03:04;;;;;;;53.83;36.35;;;;;;;1.77;100.00;101781.94;5025956;28;20510;-80
2022/12/05 10:06:05;;;;;;;58.60;36.95;;;;;;;1.80;100.00;101783.66;5026700;28;20065;-80
2022/12/05 10:09:00;;;;;;;55.20;36.35;;;;;;;1.82;100.00;101779.31;4986561;28;20125;-80
2022/12/05 10:11:51;;;;;;;55.25;36.22;;;;;;;1.82;100.00;101782.81;5004267;28;20493;-81
2022/12/05 10:14:27;;;;;;;52.53;35.53;;;;;;;1.81;100.00;101780.19;4988045;28;20080;-81
2022/12/05 10:17:00;;;;;;;53.80;35.50;;;;;;;1.75;100.00;101767.91;4996616;28;20257;-81
2022/12/05 10:19:32;;;;;;;56.27;37.43;;;;;;;1.80;100.00;101776.69;4986357;28;20376;-80
2022/12/05 10:22:08;;;;;;;51.67;35.67;;;;;;;1.81;100.00;101773.19;4986214;28;20797;-80
2022/12/05 10:24:48;;;;;;;52.92;36.10;;;;;;;1.85;100.00;101774.06;4990161;28;20037;-80
2022/12/05 10:27:18;;;;;;;51.72;34.25;;;;;;;1.84;100.00;101783.69;4992655;28;20069;-80
2022/12/05 10:29:52;;;;;;;52.53;34.95;;;;;;;1.85;100.00;101781.94;4986030;28;20090;-80
2022/12/05 10:32:26;;;;;;;43.92;32.05;;;;;;;1.83;100.00;101776.66;5012543;22;20482;-80
2022/12/05 10:34:58;;;;;;;48.65;33.55;;;;;;;1.86;100.00;101784.56;5057064;28;20033;-81
2022/12/05 10:37:24;;;;;;;50.90;33.85;;;;;;;1.86;100.00;101778.44;5061319;28;20029;-81
2022/12/05 10:39:51;;;;;;;45.25;32.75;;;;;;;1.83;100.00;101779.28;5068348;28;20031;-80
2022/12/05 10:42:22;;;;;;;45.55;32.80;;;;;;;1.89;100.00;101781.94;5070144;28;20078;-80
2022/12/05 10:44:53;;;;;;;45.33;31.90;;;;;;;1.89;100.00;101781.94;5069260;28;20060;-80
2022/12/05 10:47:18;;;;;;;44.13;31.73;;;;;;;1.93;100.00;101774.94;5073374;28;20032;-79
2022/12/05 10:49:44;;;;;;;41.33;30.73;;;;;;;1.89;100.00;101789.81;5069190;28;20090;-79
2022/12/05 10:52:12;;;;;;;40.08;30.10;;;;;;;1.88;100.00;101790.69;5068310;28;20362;-80
2022/12/05 10:54:44;;;;;;;40.03;29.27;;;;;;;1.84;100.00;101788.94;5064565;28;20617;-80
2022/12/05 10:57:24;;;;;;;43.05;30.58;;;;;;;1.87;100.00;101780.16;5068466;28;20021;-80
2022/12/05 10:59:50;;;;;;;41.30;29.88;;;;;;;1.80;100.00;101773.16;5059395;28;20033;-78
2022/12/05 11:02:28;;;;;;;40.33;30.05;;;;;;;1.89;100.00;101781.94;5056885;28;20031;-79
2022/12/05 11:04:55;;;;;;;40.85;30.25;;;;;;;1.87;100.00;101773.16;5062270;28;20093;-79
2022/12/05 11:07:27;;;;;;;41.00;30.60;;;;;;;1.91;100.00;101781.91;5060021;28;20056;-81
2022/12/05 11:09:53;;;;;;;37.85;29.13;;;;;;;1.88;100.00;101774.03;5057862;28;20028;-81
2022/12/05 11:12:25;;;;;;;40.47;30.13;;;;;;;1.89;100.00;101779.31;5061277;28;20024;-79
2022/12/05 11:15:18;;;;;;;40.22;30.00;;;;;;;1.89;100.00;101775.81;5060786;28;20025;-78
2022/12/05 11:17:44;;;;;;;40.63;29.73;;;;;;;1.85;100.00;101777.56;5053906;28;20074;-79
2022/12/05 11:20:18;;;;;;;39.78;29.27;;;;;;;1.85;100.00;101780.19;5059529;28;20059;-79
2022/12/05 11:22:49;;;;;;;35.75;26.90;;;;;;;1.83;100.00;101778.41;5058756;28;20064;-80
2022/12/05 11:25:27;;;;;;;30.42;25.85;;;;;;;1.80;100.00;101781.03;5060444;28;20033;-80
2022/12/05 11:27:53;;;;;;;29.10;24.52;;;;;;;1.80;100.00;101776.69;5063647;28;20869;-80
2022/12/05 11:30:21;;;;;;;28.92;24.33;;;;;;;1.79;100.00;101785.41;5064782;28;20496;-81